createdAt,value
2022-11-05T00:02:27.150Z,1.30
2022-11-05T00:05:12.553Z,1.48
2022-11-05T00:08:05.902Z,1.13
2022-11-05T00:10:36.864Z,1.13
2022-11-05T00:13:24.273Z,1.33
2022-11-05T00:16:10.154Z,1.40
2022-11-05T00:21:04.100Z,1.17
2022-11-05T00:23:49.536Z,1.25
2022-11-05T00:26:16.445Z,1.10
2022-11-05T00:28:44.585Z,1.55
2022-11-05T00:31:13.688Z,1.10
2022-11-05T00:33:42.140Z,1.35
2022-11-05T00:36:10.475Z,0.85
2022-11-05T00:38:37.843Z,1.23
2022-11-05T00:41:04.747Z,1.42
2022-11-05T00:43:50.222Z,1.40
2022-11-05T00:46:17.017Z,1.20
2022-11-05T00:49:02.220Z,1.10
2022-11-05T00:51:29.056Z,1.65
2022-11-05T00:53:55.802Z,1.40
2022-11-05T00:56:22.615Z,1.20
2022-11-05T00:58:49.404Z,1.60
2022-11-05T01:01:16.379Z,1.50
2022-11-05T01:03:48.847Z,1.15
2022-11-05T01:06:18.262Z,1.20
2022-11-05T01:08:46.187Z,1.58
2022-11-05T01:11:34.587Z,1.40
2022-11-05T01:14:07.792Z,1.50
2022-11-05T01:16:35.325Z,2.15
2022-11-05T01:19:03.917Z,1.50
2022-11-05T01:21:30.798Z,1.80
2022-11-05T01:23:57.639Z,1.42
2022-11-05T01:26:24.706Z,1.38
2022-11-05T01:28:54.226Z,1.70
2022-11-05T01:31:21.738Z,1.70
2022-11-05T01:33:49.043Z,2.28
2022-11-05T01:36:16.085Z,1.85
2022-11-05T01:38:42.883Z,1.95
2022-11-05T01:41:09.858Z,2.90
2022-11-05T01:43:54.547Z,3.45
2022-11-05T01:46:30.604Z,3.20
2022-11-05T01:49:07.050Z,3.47
2022-11-05T01:51:33.941Z,3.80
2022-11-05T01:54:09.743Z,3.85
2022-11-05T01:56:43.687Z,3.80
2022-11-05T01:59:24.212Z,4.03
2022-11-05T02:01:51.986Z,4.00
2022-11-05T02:04:30.233Z,4.10
2022-11-05T02:06:57.523Z,4.53
2022-11-05T02:09:47.486Z,4.35
2022-11-05T02:12:15.028Z,4.85
2022-11-05T02:14:42.160Z,4.47
2022-11-05T02:17:25.230Z,4.70
2022-11-05T02:20:35.783Z,4.88
2022-11-05T02:23:28.814Z,4.68
2022-11-05T02:26:07.478Z,4.80
2022-11-05T02:28:57.549Z,4.88
2022-11-05T02:31:24.316Z,4.97
2022-11-05T02:34:29.966Z,4.75
2022-11-05T02:37:13.154Z,5.03
2022-11-05T02:40:14.802Z,5.18
2022-11-05T02:43:16.112Z,4.45
2022-11-05T02:46:09.462Z,5.25
2022-11-05T02:48:52.560Z,5.32
2022-11-05T02:51:24.285Z,5.93
2022-11-05T02:54:02.468Z,6.03
2022-11-05T02:56:46.487Z,6.15
2022-11-05T02:59:13.414Z,5.88
2022-11-05T03:01:43.825Z,6.25
2022-11-05T03:04:13.977Z,6.05
2022-11-05T03:07:15.808Z,5.75
2022-11-05T03:10:07.082Z,6.07
2022-11-05T03:12:57.065Z,6.75
2022-11-05T03:16:01.927Z,6.60
2022-11-05T03:18:44.390Z,5.80
2022-11-05T03:21:17.393Z,6.03
2022-11-05T03:23:49.933Z,5.22
2022-11-05T03:26:31.394Z,6.15
2022-11-05T03:29:13.383Z,6.05
2022-11-05T03:31:41.660Z,5.63
2022-11-05T03:34:10.529Z,5.20
2022-11-05T03:36:42.660Z,4.72
2022-11-05T03:39:15.504Z,5.25
2022-11-05T03:41:45.084Z,5.20
2022-11-05T03:44:15.554Z,5.03
2022-11-05T03:46:47.963Z,4.40
2022-11-05T03:49:38.564Z,4.53
2022-11-05T03:52:16.361Z,3.80
2022-11-05T03:54:43.641Z,4.18
2022-11-05T03:57:13.371Z,4.07
2022-11-05T03:59:45.521Z,3.70
2022-11-05T04:02:14.329Z,3.50
2022-11-05T04:04:41.441Z,4.00
2022-11-05T04:07:28.648Z,2.90
2022-11-05T04:10:13.987Z,3.20
2022-11-05T04:12:59.369Z,3.22
2022-11-05T04:15:26.918Z,3.08
2022-11-05T04:17:53.926Z,2.40
2022-11-05T04:20:39.394Z,2.47
2022-11-05T04:23:25.690Z,2.53
2022-11-05T04:25:52.546Z,2.60
2022-11-05T04:28:19.367Z,2.65
2022-11-05T04:30:46.249Z,2.63
2022-11-05T04:33:15.832Z,2.40
2022-11-05T04:35:48.030Z,2.75
2022-11-05T04:38:17.520Z,2.90
2022-11-05T04:40:45.201Z,3.00
2022-11-05T04:43:18.023Z,3.40
2022-11-05T04:45:45.673Z,3.95
2022-11-05T04:48:13.017Z,3.88
2022-11-05T04:50:39.906Z,4.45
2022-11-05T04:53:06.782Z,4.20
2022-11-05T04:55:33.617Z,4.55
2022-11-05T04:58:00.564Z,4.95
2022-11-05T05:00:27.488Z,4.55
2022-11-05T05:02:54.302Z,5.05
2022-11-05T05:05:22.832Z,5.45
2022-11-05T05:07:49.577Z,5.03
2022-11-05T05:10:16.596Z,5.15
2022-11-05T05:12:43.466Z,5.63
2022-11-05T05:15:10.425Z,6.10
2022-11-05T05:17:37.203Z,5.47
2022-11-05T05:20:22.763Z,5.68
2022-11-05T05:22:54.008Z,5.90
2022-11-05T05:25:21.833Z,6.13
2022-11-05T05:27:48.629Z,5.93
2022-11-05T05:30:15.522Z,6.25
2022-11-05T05:32:42.318Z,6.25
2022-11-05T05:35:09.612Z,6.88
2022-11-05T05:37:36.450Z,7.30
2022-11-05T05:40:03.644Z,8.18
2022-11-05T05:42:30.620Z,6.90
2022-11-05T05:44:57.429Z,6.88
2022-11-05T05:47:24.243Z,7.40
2022-11-05T05:49:51.243Z,7.57
2022-11-05T05:52:18.085Z,7.10
2022-11-05T05:54:44.916Z,7.43
2022-11-05T05:57:11.758Z,6.70
2022-11-05T05:59:38.686Z,7.03
2022-11-05T06:02:05.625Z,7.00
2022-11-05T06:04:32.579Z,6.57
2022-11-05T06:06:59.319Z,7.22
2022-11-05T06:09:26.149Z,5.80
2022-11-05T06:11:53.034Z,6.35
2022-11-05T06:14:19.874Z,5.63
2022-11-05T06:16:46.642Z,6.85
2022-11-05T06:19:13.509Z,6.35
2022-11-05T06:21:40.282Z,6.63
2022-11-05T06:24:07.532Z,6.28
2022-11-05T06:26:34.364Z,7.43
2022-11-05T06:29:01.192Z,6.65
2022-11-05T06:31:27.973Z,7.43
2022-11-05T06:34:18.807Z,6.68
2022-11-05T06:36:45.699Z,6.68
2022-11-05T06:39:12.970Z,7.38
2022-11-05T06:42:03.923Z,7.15
2022-11-05T06:44:27.677Z,7.35
2022-11-05T06:46:54.489Z,7.43
2022-11-05T06:49:24.643Z,7.40
2022-11-05T06:51:52.539Z,7.47
2022-11-05T06:54:19.459Z,6.88
2022-11-05T06:56:46.335Z,6.75
2022-11-05T06:59:13.123Z,7.60
2022-11-05T07:01:40.061Z,7.57
2022-11-05T07:04:06.913Z,6.60
2022-11-05T07:06:37.024Z,6.13
2022-11-05T07:09:04.752Z,6.50
2022-11-05T07:11:31.591Z,6.28
2022-11-05T07:13:58.452Z,6.07
2022-11-05T07:16:25.239Z,5.15
2022-11-05T07:18:52.889Z,6.22
2022-11-05T07:21:19.758Z,5.18
2022-11-05T07:23:46.756Z,4.97
2022-11-05T07:26:13.594Z,5.35
2022-11-05T07:28:40.474Z,4.72
2022-11-05T07:31:07.426Z,4.55
2022-11-05T07:33:36.692Z,5.30
2022-11-05T07:36:03.957Z,4.68
2022-11-05T07:38:30.870Z,4.80
2022-11-05T07:41:00.210Z,4.57
2022-11-05T07:43:27.004Z,4.95
2022-11-05T07:45:53.815Z,4.28
2022-11-05T07:48:20.647Z,3.72
2022-11-05T07:50:52.047Z,4.13
2022-11-05T07:53:20.718Z,4.38
2022-11-05T07:55:47.568Z,4.35
2022-11-05T07:58:14.556Z,3.90
2022-11-05T08:00:41.532Z,3.65
2022-11-05T08:03:13.830Z,4.07
2022-11-05T08:05:44.830Z,4.03
2022-11-05T08:08:14.334Z,4.22
2022-11-05T08:10:41.755Z,4.25
2022-11-05T08:13:10.181Z,4.10
2022-11-05T08:15:37.374Z,4.20
2022-11-05T08:18:06.842Z,4.20
2022-11-05T08:20:35.592Z,4.15
2022-11-05T08:23:02.365Z,3.75
2022-11-05T08:25:29.373Z,3.55
2022-11-05T08:28:05.209Z,3.88
2022-11-05T08:30:32.689Z,3.58
2022-11-05T08:33:02.776Z,3.88
2022-11-05T08:35:30.019Z,3.60
2022-11-05T08:38:02.764Z,3.80
2022-11-05T08:40:31.825Z,4.25
2022-11-05T08:42:59.858Z,4.18
2022-11-05T08:45:27.409Z,3.78
2022-11-05T08:48:00.971Z,3.97
2022-11-05T08:50:28.555Z,4.10
2022-11-05T08:52:55.955Z,4.32
2022-11-05T08:55:23.260Z,3.97
2022-11-05T08:57:55.845Z,3.55
2022-11-05T09:00:22.741Z,3.40
2022-11-05T09:02:49.711Z,3.38
2022-11-05T09:05:16.679Z,3.47
2022-11-05T09:07:43.725Z,3.97
2022-11-05T09:10:10.787Z,3.28
2022-11-05T09:12:37.561Z,3.65
2022-11-05T09:15:05.016Z,4.00
2022-11-05T09:17:31.871Z,3.50
2022-11-05T09:19:58.733Z,3.85
2022-11-05T09:22:25.505Z,4.05
2022-11-05T09:24:52.356Z,3.80
2022-11-05T09:27:19.112Z,3.78
2022-11-05T09:29:45.972Z,3.75
2022-11-05T09:32:12.880Z,3.28
2022-11-05T09:34:39.803Z,3.60
2022-11-05T09:37:06.573Z,3.67
2022-11-05T09:39:33.485Z,3.45
2022-11-05T09:42:04.842Z,3.50
2022-11-05T09:45:05.910Z,3.67
2022-11-05T09:47:53.641Z,3.20
2022-11-05T09:50:30.467Z,3.15
2022-11-05T09:52:57.829Z,4.00
2022-11-05T09:55:30.461Z,3.33
2022-11-05T09:58:03.705Z,3.90
2022-11-05T10:00:32.427Z,3.85
2022-11-05T10:03:05.168Z,3.65
2022-11-05T10:05:34.101Z,4.00
2022-11-05T10:08:07.225Z,4.10
2022-11-05T10:11:00.781Z,4.57
2022-11-05T10:13:36.488Z,3.72
2022-11-05T10:16:06.531Z,4.22
2022-11-05T10:18:47.275Z,4.03
2022-11-05T10:21:32.271Z,4.00
2022-11-05T10:24:17.770Z,3.78
2022-11-05T10:26:50.543Z,3.80
2022-11-05T10:29:26.450Z,3.85
2022-11-05T10:31:54.800Z,3.60
2022-11-05T10:34:26.131Z,3.80
2022-11-05T10:36:54.348Z,3.65
2022-11-05T10:39:21.655Z,3.72
2022-11-05T10:42:02.518Z,3.40
2022-11-05T10:44:35.307Z,4.03
2022-11-05T10:47:44.517Z,3.80
2022-11-05T10:50:16.457Z,4.55
2022-11-05T10:53:14.358Z,3.85
2022-11-05T10:55:44.611Z,3.72
2022-11-05T10:58:21.249Z,4.22
2022-11-05T11:00:54.510Z,3.90
2022-11-05T11:03:33.407Z,3.60
2022-11-05T11:06:07.575Z,4.20
2022-11-05T11:08:36.812Z,4.28
2022-11-05T11:11:07.876Z,4.07
2022-11-05T11:13:50.529Z,4.75
2022-11-05T11:16:22.720Z,4.43
2022-11-05T11:18:55.069Z,4.72
2022-11-05T11:21:26.339Z,4.57
2022-11-05T11:24:06.998Z,4.43
2022-11-05T11:26:36.847Z,4.03
2022-11-05T11:29:21.456Z,4.32
2022-11-05T11:31:48.386Z,4.45
2022-11-05T11:34:19.537Z,4.72
2022-11-05T11:36:50.025Z,4.28
2022-11-05T11:39:22.326Z,4.32
2022-11-05T11:41:54.868Z,4.28
2022-11-05T11:44:29.543Z,4.28
2022-11-05T11:47:17.190Z,4.60
2022-11-05T11:49:53.434Z,4.90
2022-11-05T11:52:35.426Z,4.85
2022-11-05T11:55:11.514Z,4.70
2022-11-05T11:58:05.256Z,4.53
2022-11-05T12:00:36.236Z,5.30
2022-11-05T12:03:44.253Z,6.35
2022-11-05T12:06:31.371Z,5.93
2022-11-05T12:09:07.007Z,4.88
2022-11-05T12:12:09.146Z,4.25
2022-11-05T12:14:46.682Z,4.18
2022-11-05T12:17:48.864Z,4.75
2022-11-05T12:20:37.555Z,4.45
2022-11-05T12:23:13.275Z,4.57
2022-11-05T12:25:59.099Z,4.50
2022-11-05T12:28:26.429Z,4.55
2022-11-05T12:31:05.744Z,4.72
2022-11-05T12:33:42.225Z,4.60
2022-11-05T12:36:40.380Z,4.43
2022-11-05T12:39:21.721Z,4.68
2022-11-05T12:42:09.986Z,5.15
2022-11-05T12:44:55.636Z,5.43
2022-11-05T12:47:22.565Z,5.47
2022-11-05T12:49:52.360Z,5.07
2022-11-05T12:52:51.903Z,4.97
2022-11-05T12:55:23.891Z,5.10
2022-11-05T12:57:54.878Z,5.03
2022-11-05T13:00:21.710Z,5.13
2022-11-05T13:02:54.849Z,5.35
2022-11-05T13:05:43.425Z,5.75
2022-11-05T13:08:15.996Z,6.55
2022-11-05T13:11:12.923Z,4.90
2022-11-05T13:13:50.670Z,5.47
2022-11-05T13:16:22.890Z,5.85
2022-11-05T13:18:54.864Z,6.15
2022-11-05T13:21:24.594Z,5.30
2022-11-05T13:24:20.939Z,6.53
2022-11-05T13:29:25.431Z,6.80
2022-11-05T13:31:58.544Z,7.18
2022-11-05T13:34:25.751Z,6.88
2022-11-05T13:37:17.220Z,7.20
2022-11-05T13:39:55.510Z,7.05
2022-11-05T13:42:25.152Z,6.70
2022-11-05T13:45:13.540Z,7.05
2022-11-05T13:47:49.203Z,6.93
2022-11-05T13:50:57.603Z,7.60
2022-11-05T13:53:43.026Z,7.93
2022-11-05T13:56:44.424Z,6.55
2022-11-05T13:59:42.246Z,7.40
2022-11-05T14:02:18.616Z,6.88
2022-11-05T14:04:48.955Z,6.35
2022-11-05T14:07:20.905Z,6.30
2022-11-05T14:09:55.123Z,6.53
2022-11-05T14:12:27.433Z,5.95
2022-11-05T14:15:00.252Z,6.00
2022-11-05T14:17:31.601Z,6.38
2022-11-05T14:20:04.504Z,6.22
2022-11-05T14:22:31.335Z,5.93
2022-11-05T14:24:59.424Z,5.32
2022-11-05T14:27:29.265Z,5.03
2022-11-05T14:29:56.352Z,5.28
2022-11-05T14:32:27.844Z,5.47
2022-11-05T14:35:16.679Z,5.38
2022-11-05T14:37:57.577Z,4.70
2022-11-05T14:40:31.875Z,5.38
2022-11-05T14:43:02.664Z,5.00
2022-11-05T14:45:38.816Z,5.43
2022-11-05T14:48:23.708Z,4.63
2022-11-05T14:50:51.468Z,5.18
2022-11-05T14:53:45.381Z,4.63
2022-11-05T14:56:15.513Z,4.97
2022-11-05T14:58:46.838Z,5.28
2022-11-05T15:01:13.658Z,4.75
2022-11-05T15:04:00.731Z,4.90
2022-11-05T15:06:27.604Z,4.50
2022-11-05T15:09:03.963Z,5.35
2022-11-05T15:11:41.079Z,4.75
2022-11-05T15:14:17.137Z,4.93
2022-11-05T15:16:48.857Z,5.20
2022-11-05T15:19:27.389Z,5.95
2022-11-05T15:21:57.666Z,4.57
2022-11-05T15:24:28.265Z,5.85
2022-11-05T15:27:19.755Z,4.90
2022-11-05T15:29:46.712Z,5.05
2022-11-05T15:32:18.434Z,5.00
2022-11-05T15:34:53.461Z,4.97
2022-11-05T15:37:23.059Z,5.13
2022-11-05T15:39:52.053Z,5.22
2022-11-05T15:42:24.413Z,6.50
2022-11-05T15:44:56.539Z,6.82
2022-11-05T15:47:36.224Z,5.93
2022-11-05T15:50:14.452Z,6.55
2022-11-05T15:52:54.634Z,5.80
2022-11-05T15:55:24.894Z,5.18
2022-11-05T15:58:00.883Z,5.70
2022-11-05T16:00:30.659Z,5.03
2022-11-05T16:03:05.032Z,4.57
2022-11-05T16:05:35.282Z,4.25
2022-11-05T16:08:05.223Z,5.05
2022-11-05T16:10:35.239Z,4.43
2022-11-05T16:13:22.506Z,4.60
2022-11-05T16:15:57.625Z,4.35
2022-11-05T16:18:30.979Z,4.10
2022-11-05T16:21:08.212Z,3.70
2022-11-05T16:23:46.049Z,4.90
2022-11-05T16:27:04.264Z,4.40
2022-11-05T16:29:35.263Z,3.88
2022-11-05T16:32:14.604Z,3.30
2022-11-05T16:34:47.748Z,3.70
2022-11-05T16:37:17.770Z,3.75
2022-11-05T16:39:45.134Z,3.45
2022-11-05T16:42:24.482Z,3.20
2022-11-05T16:44:54.030Z,3.60
2022-11-05T16:47:22.191Z,3.97
2022-11-05T16:49:49.730Z,3.03
2022-11-05T16:52:17.141Z,3.00
2022-11-05T16:54:43.889Z,2.65
2022-11-05T16:57:29.237Z,3.55
2022-11-05T16:59:57.215Z,3.47
2022-11-05T17:02:24.219Z,2.50
2022-11-05T17:04:51.755Z,3.22
2022-11-05T17:07:18.531Z,3.00
2022-11-05T17:09:45.377Z,2.95
2022-11-05T17:12:12.982Z,3.35
2022-11-05T17:14:40.097Z,3.30
2022-11-05T17:17:07.177Z,3.75
2022-11-05T17:19:34.071Z,3.72
2022-11-05T17:22:00.882Z,3.17
2022-11-05T17:24:27.758Z,3.58
2022-11-05T17:26:54.732Z,3.03
2022-11-05T17:29:21.579Z,3.05
2022-11-05T17:31:48.975Z,3.40
2022-11-05T17:34:15.962Z,2.85
2022-11-05T17:36:42.767Z,3.28
2022-11-05T17:39:11.016Z,3.30
2022-11-05T17:41:37.845Z,3.22
2022-11-05T17:44:04.674Z,3.40
2022-11-05T17:46:31.495Z,4.03
2022-11-05T17:48:58.344Z,3.63
2022-11-05T17:51:25.095Z,3.38
2022-11-05T17:53:52.062Z,3.60
2022-11-05T17:56:30.513Z,3.95
2022-11-05T17:59:01.809Z,4.10
2022-11-05T18:01:31.597Z,3.25
2022-11-05T18:04:02.472Z,3.13
2022-11-05T18:09:00.750Z,3.45
2022-11-05T18:11:27.580Z,3.60
2022-11-05T18:13:54.411Z,3.88
2022-11-05T18:16:21.256Z,3.60
2022-11-05T18:18:49.262Z,3.53
2022-11-05T18:21:16.473Z,5.15
2022-11-05T18:23:43.630Z,4.50
2022-11-05T18:26:12.346Z,4.47
2022-11-05T18:28:39.303Z,3.60
2022-11-05T18:31:21.022Z,3.85
2022-11-05T18:33:49.968Z,4.10
2022-11-05T18:36:27.568Z,4.28
2022-11-05T18:38:56.442Z,4.00
2022-11-05T18:41:23.323Z,3.72
2022-11-05T18:43:50.215Z,4.43
2022-11-05T18:46:43.097Z,3.28
2022-11-05T18:49:04.705Z,3.97
2022-11-05T18:51:31.632Z,3.83
2022-11-05T18:53:58.592Z,3.80
2022-11-05T18:56:25.372Z,3.88
2022-11-05T18:59:08.608Z,4.32
2022-11-05T19:01:41.169Z,4.93
2022-11-05T19:04:08.164Z,4.70
2022-11-05T19:06:35.923Z,5.05
2022-11-05T19:09:04.441Z,4.50
2022-11-05T19:11:31.443Z,4.20
2022-11-05T19:13:58.574Z,5.05
2022-11-05T19:16:28.250Z,5.03
2022-11-05T19:18:58.795Z,3.97
2022-11-05T19:21:26.646Z,4.95
2022-11-05T19:23:53.880Z,4.97
2022-11-05T19:26:28.330Z,4.50
2022-11-05T19:28:58.755Z,4.10
2022-11-05T19:31:26.632Z,4.25
2022-11-05T19:33:54.073Z,4.13
2022-11-05T19:36:22.315Z,4.22
2022-11-05T19:38:56.233Z,4.65
2022-11-05T19:41:23.536Z,4.43
2022-11-05T19:43:50.558Z,4.60
2022-11-05T19:46:19.397Z,4.47
2022-11-05T19:48:46.557Z,4.10
2022-11-05T19:51:17.182Z,3.45
2022-11-05T19:53:44.838Z,4.55
2022-11-05T19:56:20.920Z,3.85
2022-11-05T19:58:48.848Z,3.83
2022-11-05T20:01:17.007Z,4.07
2022-11-05T20:03:44.244Z,4.00
2022-11-05T20:06:14.971Z,4.25
2022-11-05T20:09:07.187Z,3.47
2022-11-05T20:11:29.688Z,3.15
2022-11-05T20:13:57.142Z,3.63
2022-11-05T20:16:42.305Z,3.53
2022-11-05T20:19:17.583Z,3.80
2022-11-05T20:21:44.993Z,3.78
2022-11-05T20:24:15.250Z,3.00
2022-11-05T20:26:45.595Z,3.53
2022-11-05T20:29:12.984Z,3.28
2022-11-05T20:31:39.793Z,3.35
2022-11-05T20:34:06.903Z,3.65
2022-11-05T20:36:33.761Z,3.53
2022-11-05T20:39:02.729Z,3.40
2022-11-05T20:41:30.881Z,3.90
2022-11-05T20:43:57.714Z,3.83
2022-11-05T20:46:25.202Z,3.58
2022-11-05T20:48:53.525Z,3.97
2022-11-05T20:51:22.516Z,3.95
2022-11-05T20:53:49.450Z,4.35
2022-11-05T20:56:19.134Z,5.50
2022-11-05T20:58:47.282Z,3.33
2022-11-05T21:01:16.238Z,5.03
2022-11-05T21:03:44.226Z,5.18
2022-11-05T21:06:11.952Z,5.13
2022-11-05T21:08:39.212Z,4.55
2022-11-05T21:11:07.132Z,4.65
2022-11-05T21:13:34.089Z,5.80
2022-11-05T21:16:01.520Z,4.05
2022-11-05T21:18:30.941Z,5.10
2022-11-05T21:21:00.397Z,4.38
2022-11-05T21:23:28.517Z,4.25
2022-11-05T21:25:55.599Z,4.03
2022-11-05T21:28:22.838Z,3.47
2022-11-05T21:30:49.918Z,4.40
2022-11-05T21:33:18.366Z,3.72
2022-11-05T21:35:47.163Z,4.15
2022-11-05T21:38:16.439Z,3.70
2022-11-05T21:40:44.633Z,3.95
2022-11-05T21:43:12.176Z,4.15
2022-11-05T21:45:40.109Z,4.53
2022-11-05T21:48:08.191Z,4.18
2022-11-05T21:50:54.545Z,3.80
2022-11-05T21:53:39.721Z,4.53
2022-11-05T21:56:45.959Z,3.85
2022-11-05T21:59:36.404Z,3.75
2022-11-05T22:02:03.995Z,3.20
2022-11-05T22:04:33.801Z,3.90
2022-11-05T22:07:01.166Z,4.22
2022-11-05T22:09:28.988Z,5.18
2022-11-05T22:11:55.868Z,3.88
2022-11-05T22:14:23.337Z,3.90
2022-11-05T22:16:50.376Z,4.43
2022-11-05T22:19:17.651Z,4.35
2022-11-05T22:21:44.575Z,4.57
2022-11-05T22:24:11.720Z,3.78
2022-11-05T22:26:40.514Z,4.57
2022-11-05T22:29:07.723Z,3.70
2022-11-05T22:31:36.456Z,4.18
2022-11-05T22:34:05.644Z,3.97
2022-11-05T22:36:33.757Z,3.85
2022-11-05T22:39:01.051Z,3.65
2022-11-05T22:41:28.273Z,5.35
2022-11-05T22:43:55.753Z,4.75
2022-11-05T22:46:24.414Z,4.30
2022-11-05T22:48:51.671Z,4.68
2022-11-05T22:51:23.056Z,4.00
2022-11-05T22:53:50.784Z,4.07
2022-11-05T22:56:20.624Z,3.92
2022-11-05T22:58:48.685Z,4.30
2022-11-05T23:01:16.858Z,4.07
2022-11-05T23:03:45.863Z,4.38
2022-11-05T23:06:34.531Z,4.80
2022-11-05T23:09:21.460Z,4.10
2022-11-05T23:11:50.604Z,4.03
2022-11-05T23:14:17.375Z,4.85
2022-11-05T23:17:03.393Z,4.18
2022-11-05T23:19:49.883Z,4.80
2022-11-05T23:22:41.430Z,5.03
2022-11-05T23:25:10.985Z,5.07
2022-11-05T23:27:39.375Z,4.45
2022-11-05T23:30:10.940Z,4.28
2022-11-05T23:32:38.502Z,4.95
2022-11-05T23:35:05.805Z,5.15
2022-11-05T23:37:51.679Z,5.70
2022-11-05T23:43:11.880Z,4.30
2022-11-05T23:45:55.131Z,4.78
2022-11-05T23:48:32.385Z,4.55
2022-11-05T23:51:08.206Z,4.47
2022-11-05T23:53:37.121Z,5.38
2022-11-05T23:56:12.954Z,5.40
2022-11-05T23:58:41.175Z,4.53
